sensor_id;sensor_type;location;lat;lon;timestamp;pressure;altitude;pressure_sealevel;temperature;humidity
59545;BME280;45368;55.002;-1.592;2022-09-21T00:00:20;101788.12;;;17.17;45.09
59545;BME280;45368;55.002;-1.592;2022-09-21T00:02:48;101788.93;;;17.24;44.92
59545;BME280;45368;55.002;-1.592;2022-09-21T00:05:16;101787.45;;;17.01;45.18
59545;BME280;45368;55.002;-1.592;2022-09-21T00:07:44;101792.42;;;17.01;45.19
59545;BME280;45368;55.002;-1.592;2022-09-21T00:10:11;101793.43;;;17.32;44.73
59545;BME280;45368;55.002;-1.592;2022-09-21T00:12:39;101797.02;;;16.39;46.01
59545;BME280;45368;55.002;-1.592;2022-09-21T00:15:09;101800.72;;;15.89;46.42
59545;BME280;45368;55.002;-1.592;2022-09-21T00:17:37;101796.81;;;16.54;45.55
59545;BME280;45368;55.002;-1.592;2022-09-21T00:20:04;101791.17;;;16.97;45.03
59545;BME280;45368;55.002;-1.592;2022-09-21T00:22:31;101795.65;;;16.54;45.14
59545;BME280;45368;55.002;-1.592;2022-09-21T00:24:59;101794.64;;;15.91;46.66
59545;BME280;45368;55.002;-1.592;2022-09-21T00:27:27;101793.46;;;16.71;45.50
59545;BME280;45368;55.002;-1.592;2022-09-21T00:29:54;101800.65;;;15.32;48.04
59545;BME280;45368;55.002;-1.592;2022-09-21T00:32:22;101795.37;;;16.18;46.36
59545;BME280;45368;55.002;-1.592;2022-09-21T00:34:50;101798.49;;;15.58;47.40
59545;BME280;45368;55.002;-1.592;2022-09-21T00:37:17;101794.65;;;15.85;47.34
59545;BME280;45368;55.002;-1.592;2022-09-21T00:39:44;101790.84;;;17.05;45.18
59545;BME280;45368;55.002;-1.592;2022-09-21T00:42:15;101791.01;;;16.21;46.06
59545;BME280;45368;55.002;-1.592;2022-09-21T00:44:43;101793.22;;;15.14;47.37
59545;BME280;45368;55.002;-1.592;2022-09-21T00:47:12;101793.68;;;13.86;51.06
59545;BME280;45368;55.002;-1.592;2022-09-21T00:49:42;101793.89;;;12.95;53.17
59545;BME280;45368;55.002;-1.592;2022-09-21T00:52:11;101794.26;;;12.67;54.35
59545;BME280;45368;55.002;-1.592;2022-09-21T00:54:41;101790.23;;;14.05;51.02
59545;BME280;45368;55.002;-1.592;2022-09-21T00:57:11;101788.15;;;15.45;48.49
59545;BME280;45368;55.002;-1.592;2022-09-21T00:59:43;101783.37;;;15.97;47.13
59545;BME280;45368;55.002;-1.592;2022-09-21T01:02:11;101782.12;;;16.46;46.01
59545;BME280;45368;55.002;-1.592;2022-09-21T01:04:38;101778.52;;;16.94;45.20
59545;BME280;45368;55.002;-1.592;2022-09-21T01:07:07;101776.14;;;16.65;45.80
59545;BME280;45368;55.002;-1.592;2022-09-21T01:09:35;101771.09;;;16.39;45.88
59545;BME280;45368;55.002;-1.592;2022-09-21T01:12:13;101768.35;;;16.54;45.64
59545;BME280;45368;55.002;-1.592;2022-09-21T01:14:56;101768.04;;;16.73;45.09
59545;BME280;45368;55.002;-1.592;2022-09-21T01:17:35;101765.21;;;16.37;45.75
59545;BME280;45368;55.002;-1.592;2022-09-21T01:20:33;101765.03;;;16.61;45.27
59545;BME280;45368;55.002;-1.592;2022-09-21T01:23:20;101760.97;;;16.37;45.65
59545;BME280;45368;55.002;-1.592;2022-09-21T01:25:59;101758.88;;;16.61;45.72
59545;BME280;45368;55.002;-1.592;2022-09-21T01:31:17;101755.56;;;16.20;46.02
59545;BME280;45368;55.002;-1.592;2022-09-21T01:33:51;101761.89;;;14.82;48.57
59545;BME280;45368;55.002;-1.592;2022-09-21T01:36:24;101762.54;;;15.56;47.13
59545;BME280;45368;55.002;-1.592;2022-09-21T01:38:56;101763.23;;;15.36;47.39
59545;BME280;45368;55.002;-1.592;2022-09-21T01:41:27;101760.88;;;16.12;46.52
59545;BME280;45368;55.002;-1.592;2022-09-21T01:44:04;101757.27;;;16.29;45.81
59545;BME280;45368;55.002;-1.592;2022-09-21T01:46:35;101757.71;;;15.90;46.63
59545;BME280;45368;55.002;-1.592;2022-09-21T01:49:11;101757.41;;;15.81;46.50
59545;BME280;45368;55.002;-1.592;2022-09-21T01:51:43;101763.45;;;13.27;52.66
59545;BME280;45368;55.002;-1.592;2022-09-21T01:54:15;101766.18;;;12.82;54.37
59545;BME280;45368;55.002;-1.592;2022-09-21T01:56:46;101762.97;;;12.37;55.18
59545;BME280;45368;55.002;-1.592;2022-09-21T01:59:18;101757.22;;;12.93;53.60
59545;BME280;45368;55.002;-1.592;2022-09-21T02:01:51;101760.17;;;12.69;54.50
59545;BME280;45368;55.002;-1.592;2022-09-21T02:04:19;101762.60;;;12.11;55.83
59545;BME280;45368;55.002;-1.592;2022-09-21T02:06:48;101760.67;;;12.85;54.56
59545;BME280;45368;55.002;-1.592;2022-09-21T02:09:16;101757.09;;;12.63;54.00
59545;BME280;45368;55.002;-1.592;2022-09-21T02:11:43;101754.56;;;14.18;51.27
59545;BME280;45368;55.002;-1.592;2022-09-21T02:14:12;101755.63;;;15.07;49.59
59545;BME280;45368;55.002;-1.592;2022-09-21T02:16:45;101756.18;;;14.41;50.95
59545;BME280;45368;55.002;-1.592;2022-09-21T02:19:17;101759.39;;;15.03;49.40
59545;BME280;45368;55.002;-1.592;2022-09-21T02:21:56;101756.96;;;15.53;48.42
59545;BME280;45368;55.002;-1.592;2022-09-21T02:24:34;101752.40;;;15.96;47.45
59545;BME280;45368;55.002;-1.592;2022-09-21T02:27:05;101748.47;;;15.69;47.52
59545;BME280;45368;55.002;-1.592;2022-09-21T02:29:44;101744.85;;;15.67;47.50
59545;BME280;45368;55.002;-1.592;2022-09-21T02:32:21;101738.57;;;15.88;46.56
59545;BME280;45368;55.002;-1.592;2022-09-21T02:34:52;101735.71;;;15.96;46.44
59545;BME280;45368;55.002;-1.592;2022-09-21T02:37:33;101738.44;;;16.06;46.61
59545;BME280;45368;55.002;-1.592;2022-09-21T02:40:08;101734.36;;;16.13;46.26
59545;BME280;45368;55.002;-1.592;2022-09-21T02:42:40;101735.29;;;16.05;46.49
59545;BME280;45368;55.002;-1.592;2022-09-21T02:45:12;101734.58;;;16.07;46.49
59545;BME280;45368;55.002;-1.592;2022-09-21T02:47:45;101739.00;;;16.01;47.07
59545;BME280;45368;55.002;-1.592;2022-09-21T02:50:18;101739.94;;;16.04;46.47
59545;BME280;45368;55.002;-1.592;2022-09-21T02:52:46;101736.32;;;16.33;46.36
59545;BME280;45368;55.002;-1.592;2022-09-21T02:55:16;101736.35;;;15.76;47.00
59545;BME280;45368;55.002;-1.592;2022-09-21T02:57:44;101732.79;;;15.82;47.37
59545;BME280;45368;55.002;-1.592;2022-09-21T03:00:15;101731.16;;;16.02;46.95
59545;BME280;45368;55.002;-1.592;2022-09-21T03:02:44;101729.29;;;15.93;47.11
59545;BME280;45368;55.002;-1.592;2022-09-21T03:05:13;101729.41;;;15.62;46.99
59545;BME280;45368;55.002;-1.592;2022-09-21T03:07:40;101729.17;;;15.83;46.96
59545;BME280;45368;55.002;-1.592;2022-09-21T03:10:08;101730.69;;;15.01;48.32
59545;BME280;45368;55.002;-1.592;2022-09-21T03:12:35;101725.16;;;15.70;47.61
59545;BME280;45368;55.002;-1.592;2022-09-21T03:15:03;101724.84;;;15.41;47.02
59545;BME280;45368;55.002;-1.592;2022-09-21T03:17:31;101730.95;;;15.68;46.81
59545;BME280;45368;55.002;-1.592;2022-09-21T03:19:58;101731.58;;;15.73;46.49
59545;BME280;45368;55.002;-1.592;2022-09-21T03:22:25;101730.12;;;15.50;46.97
59545;BME280;45368;55.002;-1.592;2022-09-21T03:24:52;101735.68;;;15.22;47.49
59545;BME280;45368;55.002;-1.592;2022-09-21T03:27:20;101734.07;;;15.88;46.43
59545;BME280;45368;55.002;-1.592;2022-09-21T03:29:47;101735.28;;;15.75;46.82
59545;BME280;45368;55.002;-1.592;2022-09-21T03:32:14;101732.87;;;15.44;47.25
59545;BME280;45368;55.002;-1.592;2022-09-21T03:34:41;101736.27;;;14.47;48.45
59545;BME280;45368;55.002;-1.592;2022-09-21T03:37:09;101737.14;;;15.27;47.86
59545;BME280;45368;55.002;-1.592;2022-09-21T03:39:36;101735.18;;;15.23;48.09
59545;BME280;45368;55.002;-1.592;2022-09-21T03:42:04;101729.58;;;15.34;47.63
59545;BME280;45368;55.002;-1.592;2022-09-21T03:44:31;101727.51;;;14.98;48.08
59545;BME280;45368;55.002;-1.592;2022-09-21T03:46:59;101724.36;;;14.69;48.17
59545;BME280;45368;55.002;-1.592;2022-09-21T03:49:25;101725.08;;;15.28;47.73
59545;BME280;45368;55.002;-1.592;2022-09-21T03:51:53;101724.29;;;14.78;48.54
59545;BME280;45368;55.002;-1.592;2022-09-21T03:54:20;101725.42;;;13.98;49.79
59545;BME280;45368;55.002;-1.592;2022-09-21T03:56:47;101727.92;;;14.12;49.27
59545;BME280;45368;55.002;-1.592;2022-09-21T03:59:14;101724.92;;;14.27;49.32
59545;BME280;45368;55.002;-1.592;2022-09-21T04:01:41;101723.75;;;14.61;48.36
59545;BME280;45368;55.002;-1.592;2022-09-21T04:04:09;101720.12;;;15.33;47.49
59545;BME280;45368;55.002;-1.592;2022-09-21T04:06:37;101724.72;;;14.62;48.59
59545;BME280;45368;55.002;-1.592;2022-09-21T04:09:04;101722.68;;;15.11;47.75
59545;BME280;45368;55.002;-1.592;2022-09-21T04:11:30;101723.89;;;14.58;48.21
59545;BME280;45368;55.002;-1.592;2022-09-21T04:14:01;101722.07;;;14.47;48.96
59545;BME280;45368;55.002;-1.592;2022-09-21T04:16:28;101718.98;;;14.80;48.45
59545;BME280;45368;55.002;-1.592;2022-09-21T04:18:56;101718.60;;;14.90;48.38
59545;BME280;45368;55.002;-1.592;2022-09-21T04:21:23;101717.80;;;14.03;49.16
59545;BME280;45368;55.002;-1.592;2022-09-21T04:23:50;101719.60;;;14.80;48.70
59545;BME280;45368;55.002;-1.592;2022-09-21T04:26:20;101718.90;;;13.83;50.31
59545;BME280;45368;55.002;-1.592;2022-09-21T04:28:48;101714.36;;;13.80;49.86
59545;BME280;45368;55.002;-1.592;2022-09-21T04:31:16;101712.49;;;14.33;48.70
59545;BME280;45368;55.002;-1.592;2022-09-21T04:33:46;101714.50;;;12.85;52.14
59545;BME280;45368;55.002;-1.592;2022-09-21T04:36:14;101708.58;;;13.58;50.97
59545;BME280;45368;55.002;-1.592;2022-09-21T04:38:42;101718.58;;;11.47;55.99
59545;BME280;45368;55.002;-1.592;2022-09-21T04:41:09;101720.04;;;10.26;59.68
59545;BME280;45368;55.002;-1.592;2022-09-21T04:43:37;101717.10;;;10.43;60.12
59545;BME280;45368;55.002;-1.592;2022-09-21T04:46:05;101715.89;;;10.74;58.15
59545;BME280;45368;55.002;-1.592;2022-09-21T04:48:33;101701.65;;;12.81;53.69
59545;BME280;45368;55.002;-1.592;2022-09-21T04:51:01;101707.94;;;11.26;57.54
59545;BME280;45368;55.002;-1.592;2022-09-21T04:53:29;101714.78;;;10.67;58.58
59545;BME280;45368;55.002;-1.592;2022-09-21T04:55:56;101716.48;;;10.26;59.93
59545;BME280;45368;55.002;-1.592;2022-09-21T04:58:23;101714.97;;;10.44;60.23
59545;BME280;45368;55.002;-1.592;2022-09-21T05:00:51;101712.74;;;10.11;61.03
59545;BME280;45368;55.002;-1.592;2022-09-21T05:03:19;101709.99;;;10.34;60.62
59545;BME280;45368;55.002;-1.592;2022-09-21T05:05:47;101707.55;;;10.39;60.52
59545;BME280;45368;55.002;-1.592;2022-09-21T05:08:15;101707.49;;;10.11;61.07
59545;BME280;45368;55.002;-1.592;2022-09-21T05:10:43;101702.39;;;10.27;60.82
59545;BME280;45368;55.002;-1.592;2022-09-21T05:13:10;101698.71;;;11.24;58.83
59545;BME280;45368;55.002;-1.592;2022-09-21T05:15:37;101702.41;;;10.18;60.74
59545;BME280;45368;55.002;-1.592;2022-09-21T05:18:04;101707.10;;;10.24;60.86
59545;BME280;45368;55.002;-1.592;2022-09-21T05:20:32;101699.08;;;11.24;57.73
59545;BME280;45368;55.002;-1.592;2022-09-21T05:22:59;101691.18;;;12.83;54.06
59545;BME280;45368;55.002;-1.592;2022-09-21T05:25:27;101689.10;;;13.97;51.77
59545;BME280;45368;55.002;-1.592;2022-09-21T05:27:54;101693.88;;;12.38;53.90
59545;BME280;45368;55.002;-1.592;2022-09-21T05:30:22;101683.91;;;13.51;51.15
59545;BME280;45368;55.002;-1.592;2022-09-21T05:32:55;101691.41;;;12.20;53.47
59545;BME280;45368;55.002;-1.592;2022-09-21T05:35:29;101687.07;;;11.62;55.61
59545;BME280;45368;55.002;-1.592;2022-09-21T05:38:03;101691.06;;;10.42;58.98
59545;BME280;45368;55.002;-1.592;2022-09-21T05:40:33;101691.95;;;10.83;59.10
59545;BME280;45368;55.002;-1.592;2022-09-21T05:43:01;101684.77;;;12.45;55.65
59545;BME280;45368;55.002;-1.592;2022-09-21T05:45:29;101690.19;;;12.36;54.17
59545;BME280;45368;55.002;-1.592;2022-09-21T05:48:05;101697.52;;;10.77;58.89
59545;BME280;45368;55.002;-1.592;2022-09-21T05:50:40;101699.98;;;10.19;60.51
59545;BME280;45368;55.002;-1.592;2022-09-21T05:53:22;101694.28;;;10.41;59.62
59545;BME280;45368;55.002;-1.592;2022-09-21T05:55:56;101696.44;;;10.29;60.42
59545;BME280;45368;55.002;-1.592;2022-09-21T05:58:34;101695.23;;;11.43;58.31
59545;BME280;45368;55.002;-1.592;2022-09-21T06:01:20;101694.32;;;10.76;59.19
59545;BME280;45368;55.002;-1.592;2022-09-21T06:03:52;101692.15;;;11.14;58.56
59545;BME280;45368;55.002;-1.592;2022-09-21T06:06:20;101692.33;;;11.23;57.21
59545;BME280;45368;55.002;-1.592;2022-09-21T06:08:47;101692.22;;;11.47;57.78
59545;BME280;45368;55.002;-1.592;2022-09-21T06:11:15;101690.87;;;10.84;58.14
59545;BME280;45368;55.002;-1.592;2022-09-21T06:13:41;101692.71;;;10.46;59.38
59545;BME280;45368;55.002;-1.592;2022-09-21T06:16:08;101695.65;;;10.75;59.06
59545;BME280;45368;55.002;-1.592;2022-09-21T06:18:37;101696.95;;;10.20;60.65
59545;BME280;45368;55.002;-1.592;2022-09-21T06:21:05;101697.11;;;10.44;60.39
59545;BME280;45368;55.002;-1.592;2022-09-21T06:23:34;101699.92;;;10.63;60.60
59545;BME280;45368;55.002;-1.592;2022-09-21T06:26:02;101698.99;;;10.56;60.20
59545;BME280;45368;55.002;-1.592;2022-09-21T06:28:30;101699.73;;;10.34;60.61
59545;BME280;45368;55.002;-1.592;2022-09-21T06:30:57;101703.01;;;10.65;61.24
59545;BME280;45368;55.002;-1.592;2022-09-21T06:33:25;101700.35;;;10.42;60.60
59545;BME280;45368;55.002;-1.592;2022-09-21T06:35:53;101701.65;;;9.86;62.17
59545;BME280;45368;55.002;-1.592;2022-09-21T06:38:22;101704.89;;;9.93;62.59
59545;BME280;45368;55.002;-1.592;2022-09-21T06:40:50;101701.01;;;10.35;61.62
59545;BME280;45368;55.002;-1.592;2022-09-21T06:43:18;101701.81;;;10.91;60.38
59545;BME280;45368;55.002;-1.592;2022-09-21T06:45:52;101701.74;;;10.39;61.73
59545;BME280;45368;55.002;-1.592;2022-09-21T06:48:20;101700.26;;;10.77;60.86
59545;BME280;45368;55.002;-1.592;2022-09-21T06:50:47;101698.35;;;11.23;59.64
59545;BME280;45368;55.002;-1.592;2022-09-21T06:53:15;101696.25;;;11.02;59.60
59545;BME280;45368;55.002;-1.592;2022-09-21T06:55:42;101698.54;;;11.10;59.76
59545;BME280;45368;55.002;-1.592;2022-09-21T06:58:09;101703.00;;;10.46;61.51
59545;BME280;45368;55.002;-1.592;2022-09-21T07:00:36;101697.20;;;11.17;59.18
59545;BME280;45368;55.002;-1.592;2022-09-21T07:03:04;101695.99;;;11.66;58.34
59545;BME280;45368;55.002;-1.592;2022-09-21T07:05:32;101703.99;;;10.98;59.97
59545;BME280;45368;55.002;-1.592;2022-09-21T07:07:59;101701.31;;;12.06;57.84
59545;BME280;45368;55.002;-1.592;2022-09-21T07:10:27;101703.06;;;11.73;58.76
59545;BME280;45368;55.002;-1.592;2022-09-21T07:12:54;101700.56;;;11.93;58.55
59545;BME280;45368;55.002;-1.592;2022-09-21T07:15:22;101703.49;;;12.37;57.69
59545;BME280;45368;55.002;-1.592;2022-09-21T07:17:49;101700.41;;;12.65;57.39
59545;BME280;45368;55.002;-1.592;2022-09-21T07:20:16;101696.18;;;12.70;57.04
59545;BME280;45368;55.002;-1.592;2022-09-21T07:22:43;101694.25;;;12.61;56.74
59545;BME280;45368;55.002;-1.592;2022-09-21T07:25:11;101692.43;;;13.27;55.56
59545;BME280;45368;55.002;-1.592;2022-09-21T07:27:38;101692.36;;;13.55;55.25
59545;BME280;45368;55.002;-1.592;2022-09-21T07:30:07;101691.74;;;13.18;55.33
59545;BME280;45368;55.002;-1.592;2022-09-21T07:32:35;101693.30;;;14.03;54.18
59545;BME280;45368;55.002;-1.592;2022-09-21T07:35:03;101695.73;;;14.31;53.20
59545;BME280;45368;55.002;-1.592;2022-09-21T07:37:32;101693.83;;;14.27;53.47
59545;BME280;45368;55.002;-1.592;2022-09-21T07:39:59;101694.94;;;14.74;52.75
59545;BME280;45368;55.002;-1.592;2022-09-21T07:42:26;101692.06;;;14.84;52.12
59545;BME280;45368;55.002;-1.592;2022-09-21T07:44:53;101690.62;;;14.69;52.30
59545;BME280;45368;55.002;-1.592;2022-09-21T07:47:24;101686.38;;;14.69;52.59
59545;BME280;45368;55.002;-1.592;2022-09-21T07:49:52;101683.29;;;14.15;53.69
59545;BME280;45368;55.002;-1.592;2022-09-21T07:52:20;101683.23;;;14.91;52.49
59545;BME280;45368;55.002;-1.592;2022-09-21T07:54:47;101681.58;;;14.26;53.68
59545;BME280;45368;55.002;-1.592;2022-09-21T07:57:14;101686.89;;;15.07;52.82
59545;BME280;45368;55.002;-1.592;2022-09-21T07:59:41;101687.95;;;14.53;53.78
59545;BME280;45368;55.002;-1.592;2022-09-21T08:02:14;101687.07;;;14.59;53.43
59545;BME280;45368;55.002;-1.592;2022-09-21T08:04:41;101685.81;;;15.58;52.38
59545;BME280;45368;55.002;-1.592;2022-09-21T08:07:08;101682.62;;;15.41;52.62
59545;BME280;45368;55.002;-1.592;2022-09-21T08:09:35;101683.09;;;14.77;53.37
59545;BME280;45368;55.002;-1.592;2022-09-21T08:12:02;101681.32;;;14.38;54.64
59545;BME280;45368;55.002;-1.592;2022-09-21T08:14:34;101682.73;;;14.20;55.22
59545;BME280;45368;55.002;-1.592;2022-09-21T08:17:03;101680.24;;;14.16;55.64
59545;BME280;45368;55.002;-1.592;2022-09-21T08:19:31;101679.80;;;14.92;54.98
59545;BME280;45368;55.002;-1.592;2022-09-21T08:21:58;101677.70;;;14.36;55.50
59545;BME280;45368;55.002;-1.592;2022-09-21T08:24:25;101680.28;;;14.39;55.45
59545;BME280;45368;55.002;-1.592;2022-09-21T08:26:52;101680.83;;;15.62;53.47
59545;BME280;45368;55.002;-1.592;2022-09-21T08:29:19;101676.59;;;14.71;54.21
59545;BME280;45368;55.002;-1.592;2022-09-21T08:31:46;101674.61;;;15.75;52.68
59545;BME280;45368;55.002;-1.592;2022-09-21T08:34:14;101675.85;;;15.16;53.62
59545;BME280;45368;55.002;-1.592;2022-09-21T08:36:41;101673.25;;;14.90;53.60
59545;BME280;45368;55.002;-1.592;2022-09-21T08:39:09;101671.48;;;14.94;54.29
59545;BME280;45368;55.002;-1.592;2022-09-21T08:41:51;101667.28;;;15.75;52.80
59545;BME280;45368;55.002;-1.592;2022-09-21T08:44:23;101666.70;;;15.81;52.18
59545;BME280;45368;55.002;-1.592;2022-09-21T08:47:00;101658.97;;;16.52;50.73
59545;BME280;45368;55.002;-1.592;2022-09-21T08:49:29;101653.36;;;16.63;50.44
59545;BME280;45368;55.002;-1.592;2022-09-21T08:52:02;101652.00;;;16.61;50.44
59545;BME280;45368;55.002;-1.592;2022-09-21T08:54:37;101651.33;;;16.36;51.13
59545;BME280;45368;55.002;-1.592;2022-09-21T08:57:09;101650.90;;;16.16;50.44
59545;BME280;45368;55.002;-1.592;2022-09-21T08:59:40;101643.22;;;17.61;48.53
59545;BME280;45368;55.002;-1.592;2022-09-21T09:02:29;101649.13;;;16.50;49.98
59545;BME280;45368;55.002;-1.592;2022-09-21T09:05:04;101647.80;;;16.36;51.21
59545;BME280;45368;55.002;-1.592;2022-09-21T09:07:59;101647.94;;;16.34;50.86
59545;BME280;45368;55.002;-1.592;2022-09-21T09:10:36;101641.41;;;17.30;49.51
59545;BME280;45368;55.002;-1.592;2022-09-21T09:13:19;101641.76;;;16.22;51.21
59545;BME280;45368;55.002;-1.592;2022-09-21T09:16:01;101643.09;;;17.01;50.58
59545;BME280;45368;55.002;-1.592;2022-09-21T09:18:39;101638.48;;;16.64;50.17
59545;BME280;45368;55.002;-1.592;2022-09-21T09:21:12;101633.91;;;17.26;49.90
59545;BME280;45368;55.002;-1.592;2022-09-21T09:23:45;101632.62;;;16.75;49.74
59545;BME280;45368;55.002;-1.592;2022-09-21T09:26:19;101634.35;;;16.06;51.84
59545;BME280;45368;55.002;-1.592;2022-09-21T09:29:02;101633.58;;;15.93;52.17
59545;BME280;45368;55.002;-1.592;2022-09-21T09:31:34;101631.22;;;16.27;52.68
59545;BME280;45368;55.002;-1.592;2022-09-21T09:34:10;101627.29;;;17.49;49.24
59545;BME280;45368;55.002;-1.592;2022-09-21T09:36:43;101628.50;;;17.26;49.52
59545;BME280;45368;55.002;-1.592;2022-09-21T09:39:13;101626.98;;;17.12;49.47
59545;BME280;45368;55.002;-1.592;2022-09-21T09:41:55;101626.04;;;17.29;49.19
59545;BME280;45368;55.002;-1.592;2022-09-21T09:44:44;101623.58;;;17.78;48.45
59545;BME280;45368;55.002;-1.592;2022-09-21T09:47:28;101629.78;;;17.21;49.52
59545;BME280;45368;55.002;-1.592;2022-09-21T09:50:04;101622.68;;;17.31;48.64
59545;BME280;45368;55.002;-1.592;2022-09-21T09:52:33;101622.60;;;17.06;49.08
59545;BME280;45368;55.002;-1.592;2022-09-21T09:55:13;101625.43;;;16.90;50.38
59545;BME280;45368;55.002;-1.592;2022-09-21T09:57:41;101618.37;;;17.66;48.52
59545;BME280;45368;55.002;-1.592;2022-09-21T10:00:13;101610.73;;;18.19;47.82
59545;BME280;45368;55.002;-1.592;2022-09-21T10:02:50;101616.63;;;16.44;49.85
59545;BME280;45368;55.002;-1.592;2022-09-21T10:05:21;101615.05;;;16.09;50.55
59545;BME280;45368;55.002;-1.592;2022-09-21T10:07:50;101615.61;;;16.22;50.54
59545;BME280;45368;55.002;-1.592;2022-09-21T10:10:35;101612.55;;;15.96;51.49
59545;BME280;45368;55.002;-1.592;2022-09-21T10:13:10;101605.70;;;17.15;48.84
59545;BME280;45368;55.002;-1.592;2022-09-21T10:15:42;101608.56;;;16.93;48.59
59545;BME280;45368;55.002;-1.592;2022-09-21T10:18:17;101601.00;;;16.85;48.54
59545;BME280;45368;55.002;-1.592;2022-09-21T10:20:54;101593.80;;;17.50;47.39
59545;BME280;45368;55.002;-1.592;2022-09-21T10:23:23;101591.13;;;17.39;47.01
59545;BME280;45368;55.002;-1.592;2022-09-21T10:26:01;101593.07;;;16.97;46.83
59545;BME280;45368;55.002;-1.592;2022-09-21T10:28:30;101587.35;;;17.18;46.71
59545;BME280;45368;55.002;-1.592;2022-09-21T10:31:30;101577.86;;;17.22;46.01
59545;BME280;45368;55.002;-1.592;2022-09-21T10:34:11;101581.35;;;16.60;46.69
59545;BME280;45368;55.002;-1.592;2022-09-21T10:36:39;101574.89;;;17.41;45.70
59545;BME280;45368;55.002;-1.592;2022-09-21T10:39:18;101584.10;;;17.86;45.43
59545;BME280;45368;55.002;-1.592;2022-09-21T10:41:49;101577.38;;;18.27;45.28
59545;BME280;45368;55.002;-1.592;2022-09-21T10:44:19;101569.56;;;18.49;43.96
59545;BME280;45368;55.002;-1.592;2022-09-21T10:46:48;101571.78;;;17.91;44.14
59545;BME280;45368;55.002;-1.592;2022-09-21T10:49:20;101568.19;;;17.62;44.54
59545;BME280;45368;55.002;-1.592;2022-09-21T10:51:52;101563.61;;;18.40;43.66
59545;BME280;45368;55.002;-1.592;2022-09-21T10:54:23;101561.98;;;17.97;44.20
59545;BME280;45368;55.002;-1.592;2022-09-21T10:56:55;101560.64;;;18.41;44.21
59545;BME280;45368;55.002;-1.592;2022-09-21T10:59:26;101554.58;;;18.38;42.52
59545;BME280;45368;55.002;-1.592;2022-09-21T11:01:55;101555.82;;;18.12;43.05
59545;BME280;45368;55.002;-1.592;2022-09-21T11:04:31;101553.23;;;18.61;41.92
59545;BME280;45368;55.002;-1.592;2022-09-21T11:07:14;101551.08;;;18.76;42.19
59545;BME280;45368;55.002;-1.592;2022-09-21T11:09:47;101550.57;;;18.24;42.44
59545;BME280;45368;55.002;-1.592;2022-09-21T11:12:45;101545.22;;;19.09;41.84
59545;BME280;45368;55.002;-1.592;2022-09-21T11:15:26;101543.35;;;17.54;43.22
59545;BME280;45368;55.002;-1.592;2022-09-21T11:18:03;101541.65;;;17.77;43.91
59545;BME280;45368;55.002;-1.592;2022-09-21T11:20:38;101539.61;;;17.16;43.72
59545;BME280;45368;55.002;-1.592;2022-09-21T11:23:19;101540.96;;;17.87;43.57
59545;BME280;45368;55.002;-1.592;2022-09-21T11:25:53;101537.66;;;18.00;43.60
59545;BME280;45368;55.002;-1.592;2022-09-21T11:28:25;101534.61;;;17.36;43.83
59545;BME280;45368;55.002;-1.592;2022-09-21T11:31:09;101527.08;;;18.16;42.95
59545;BME280;45368;55.002;-1.592;2022-09-21T11:33:54;101524.81;;;18.86;41.77
59545;BME280;45368;55.002;-1.592;2022-09-21T11:36:34;101520.88;;;18.68;41.04
59545;BME280;45368;55.002;-1.592;2022-09-21T11:39:11;101517.39;;;19.69;40.36
59545;BME280;45368;55.002;-1.592;2022-09-21T11:41:52;101501.27;;;21.98;36.00
59545;BME280;45368;55.002;-1.592;2022-09-21T11:44:41;101502.31;;;21.14;36.69
59545;BME280;45368;55.002;-1.592;2022-09-21T11:47:19;101502.32;;;20.47;37.47
59545;BME280;45368;55.002;-1.592;2022-09-21T11:50:06;101507.39;;;18.54;40.05
59545;BME280;45368;55.002;-1.592;2022-09-21T11:52:49;101502.73;;;19.68;39.29
59545;BME280;45368;55.002;-1.592;2022-09-21T11:55:31;101501.61;;;18.70;39.97
59545;BME280;45368;55.002;-1.592;2022-09-21T11:58:08;101499.79;;;18.31;41.63
59545;BME280;45368;55.002;-1.592;2022-09-21T12:00:46;101499.36;;;18.94;41.28
59545;BME280;45368;55.002;-1.592;2022-09-21T12:03:47;101496.05;;;20.10;39.00
59545;BME280;45368;55.002;-1.592;2022-09-21T12:06:25;101493.85;;;19.68;39.40
59545;BME280;45368;55.002;-1.592;2022-09-21T12:09:08;101495.19;;;18.92;40.37
59545;BME280;45368;55.002;-1.592;2022-09-21T12:11:47;101493.56;;;18.07;42.33
59545;BME280;45368;55.002;-1.592;2022-09-21T12:14:22;101494.41;;;18.11;41.83
59545;BME280;45368;55.002;-1.592;2022-09-21T12:16:56;101489.78;;;18.94;41.70
59545;BME280;45368;55.002;-1.592;2022-09-21T12:19:33;101487.34;;;18.23;43.39
59545;BME280;45368;55.002;-1.592;2022-09-21T12:22:09;101486.80;;;17.91;44.10
59545;BME280;45368;55.002;-1.592;2022-09-21T12:24:42;101485.55;;;18.34;42.54
59545;BME280;45368;55.002;-1.592;2022-09-21T12:27:17;101487.21;;;18.09;43.71
59545;BME280;45368;55.002;-1.592;2022-09-21T12:29:49;101491.53;;;18.31;43.33
59545;BME280;45368;55.002;-1.592;2022-09-21T12:32:22;101480.91;;;18.41;42.31
59545;BME280;45368;55.002;-1.592;2022-09-21T12:34:59;101481.87;;;17.95;43.21
59545;BME280;45368;55.002;-1.592;2022-09-21T12:37:32;101475.53;;;18.28;42.86
59545;BME280;45368;55.002;-1.592;2022-09-21T12:40:11;101473.49;;;17.93;42.37
59545;BME280;45368;55.002;-1.592;2022-09-21T12:42:45;101471.69;;;18.22;42.40
59545;BME280;45368;55.002;-1.592;2022-09-21T12:45:24;101468.43;;;19.03;41.78
59545;BME280;45368;55.002;-1.592;2022-09-21T12:47:57;101470.92;;;18.90;41.15
59545;BME280;45368;55.002;-1.592;2022-09-21T12:50:29;101463.77;;;18.64;42.15
59545;BME280;45368;55.002;-1.592;2022-09-21T12:53:02;101462.03;;;18.89;40.84
59545;BME280;45368;55.002;-1.592;2022-09-21T12:55:37;101466.71;;;17.82;42.39
59545;BME280;45368;55.002;-1.592;2022-09-21T12:58:14;101462.12;;;17.68;42.96
59545;BME280;45368;55.002;-1.592;2022-09-21T13:00:51;101459.37;;;18.18;42.20
59545;BME280;45368;55.002;-1.592;2022-09-21T13:03:26;101456.46;;;18.10;41.50
59545;BME280;45368;55.002;-1.592;2022-09-21T13:06:12;101454.00;;;18.17;41.86